sensor_id;sensor_type;location;lat;lon;timestamp;P1;durP1;ratioP1;P2;durP2;ratioP2
72115;SDS011;59991;52.140;5.428;2023-02-14T00:00:12;43.60;;;29.05;;
72115;SDS011;59991;52.140;5.428;2023-02-14T00:00:45;41.75;;;29.85;;
72115;SDS011;59991;52.140;5.428;2023-02-14T00:01:16;36.10;;;26.17;;
72115;SDS011;59991;52.140;5.428;2023-02-14T00:01:48;42.70;;;27.25;;
72115;SDS011;59991;52.140;5.428;2023-02-14T00:02:20;43.85;;;29.23;;
72115;SDS011;59991;52.140;5.428;2023-02-14T00:02:53;41.10;;;27.67;;
72115;SDS011;59991;52.140;5.428;2023-02-14T00:03:36;38.78;;;26.75;;
72115;SDS011;59991;52.140;5.428;2023-02-14T00:04:08;40.63;;;26.90;;
72115;SDS011;59991;52.140;5.428;2023-02-14T00:04:39;39.83;;;26.42;;
72115;SDS011;59991;52.140;5.428;2023-02-14T00:05:15;40.47;;;27.83;;
72115;SDS011;59991;52.140;5.428;2023-02-14T00:05:47;40.00;;;28.58;;
72115;SDS011;59991;52.140;5.428;2023-02-14T00:06:19;38.95;;;28.13;;
72115;SDS011;59991;52.140;5.428;2023-02-14T00:06:50;42.92;;;27.75;;
72115;SDS011;59991;52.140;5.428;2023-02-14T00:07:22;38.65;;;26.70;;
72115;SDS011;59991;52.140;5.428;2023-02-14T00:07:53;42.60;;;30.42;;
72115;SDS011;59991;52.140;5.428;2023-02-14T00:08:25;39.45;;;28.02;;
72115;SDS011;59991;52.140;5.428;2023-02-14T00:08:56;39.90;;;27.48;;
72115;SDS011;59991;52.140;5.428;2023-02-14T00:09:28;41.33;;;29.53;;
72115;SDS011;59991;52.140;5.428;2023-02-14T00:09:59;38.40;;;26.83;;
72115;SDS011;59991;52.140;5.428;2023-02-14T00:10:31;40.72;;;27.05;;
72115;SDS011;59991;52.140;5.428;2023-02-14T00:11:05;40.65;;;27.05;;
72115;SDS011;59991;52.140;5.428;2023-02-14T00:11:39;43.25;;;28.33;;
72115;SDS011;59991;52.140;5.428;2023-02-14T00:12:10;38.90;;;27.17;;
72115;SDS011;59991;52.140;5.428;2023-02-14T00:12:41;40.03;;;27.17;;
72115;SDS011;59991;52.140;5.428;2023-02-14T00:13:13;40.40;;;29.00;;
72115;SDS011;59991;52.140;5.428;2023-02-14T00:13:44;42.35;;;28.88;;
72115;SDS011;59991;52.140;5.428;2023-02-14T00:14:35;37.90;;;25.25;;
72115;SDS011;59991;52.140;5.428;2023-02-14T00:15:25;36.50;;;24.27;;
72115;SDS011;59991;52.140;5.428;2023-02-14T00:15:56;38.53;;;26.13;;
72115;SDS011;59991;52.140;5.428;2023-02-14T00:16:28;37.17;;;25.15;;
72115;SDS011;59991;52.140;5.428;2023-02-14T00:16:59;37.92;;;26.38;;
72115;SDS011;59991;52.140;5.428;2023-02-14T00:17:31;41.53;;;27.70;;
72115;SDS011;59991;52.140;5.428;2023-02-14T00:18:02;38.30;;;26.05;;
72115;SDS011;59991;52.140;5.428;2023-02-14T00:18:39;39.80;;;26.33;;
72115;SDS011;59991;52.140;5.428;2023-02-14T00:19:46;39.92;;;25.23;;
72115;SDS011;59991;52.140;5.428;2023-02-14T00:20:17;36.55;;;25.50;;
72115;SDS011;59991;52.140;5.428;2023-02-14T00:20:49;39.28;;;25.77;;
72115;SDS011;59991;52.140;5.428;2023-02-14T00:21:21;39.77;;;25.47;;
72115;SDS011;59991;52.140;5.428;2023-02-14T00:21:52;38.75;;;25.80;;
72115;SDS011;59991;52.140;5.428;2023-02-14T00:22:24;37.88;;;26.10;;
72115;SDS011;59991;52.140;5.428;2023-02-14T00:22:55;38.08;;;27.08;;
72115;SDS011;59991;52.140;5.428;2023-02-14T00:23:27;38.97;;;26.52;;
72115;SDS011;59991;52.140;5.428;2023-02-14T00:23:58;39.85;;;26.95;;
72115;SDS011;59991;52.140;5.428;2023-02-14T00:24:30;41.78;;;27.77;;
72115;SDS011;59991;52.140;5.428;2023-02-14T00:25:01;39.90;;;26.92;;
72115;SDS011;59991;52.140;5.428;2023-02-14T00:25:33;38.08;;;27.60;;
72115;SDS011;59991;52.140;5.428;2023-02-14T00:26:04;41.40;;;26.50;;
72115;SDS011;59991;52.140;5.428;2023-02-14T00:26:36;36.33;;;25.50;;
72115;SDS011;59991;52.140;5.428;2023-02-14T00:27:08;40.65;;;27.55;;
72115;SDS011;59991;52.140;5.428;2023-02-14T00:27:40;40.35;;;26.55;;
72115;SDS011;59991;52.140;5.428;2023-02-14T00:28:11;38.60;;;27.85;;
72115;SDS011;59991;52.140;5.428;2023-02-14T00:28:43;39.97;;;26.80;;
72115;SDS011;59991;52.140;5.428;2023-02-14T00:29:16;41.13;;;27.05;;
72115;SDS011;59991;52.140;5.428;2023-02-14T00:29:50;39.45;;;27.23;;
72115;SDS011;59991;52.140;5.428;2023-02-14T00:30:22;43.55;;;28.38;;
72115;SDS011;59991;52.140;5.428;2023-02-14T00:30:55;35.88;;;25.83;;
72115;SDS011;59991;52.140;5.428;2023-02-14T00:31:28;38.50;;;24.92;;
72115;SDS011;59991;52.140;5.428;2023-02-14T00:31:59;37.30;;;25.50;;
72115;SDS011;59991;52.140;5.428;2023-02-14T00:32:31;36.60;;;25.90;;
72115;SDS011;59991;52.140;5.428;2023-02-14T00:33:03;36.97;;;26.42;;
72115;SDS011;59991;52.140;5.428;2023-02-14T00:33:34;38.42;;;27.85;;
72115;SDS011;59991;52.140;5.428;2023-02-14T00:34:06;35.47;;;24.70;;
72115;SDS011;59991;52.140;5.428;2023-02-14T00:34:39;36.47;;;25.23;;
72115;SDS011;59991;52.140;5.428;2023-02-14T00:35:11;36.67;;;25.77;;
72115;SDS011;59991;52.140;5.428;2023-02-14T00:35:42;39.22;;;27.77;;
72115;SDS011;59991;52.140;5.428;2023-02-14T00:36:13;38.47;;;26.35;;
72115;SDS011;59991;52.140;5.428;2023-02-14T00:36:48;37.13;;;25.38;;
72115;SDS011;59991;52.140;5.428;2023-02-14T00:37:19;37.03;;;26.97;;
72115;SDS011;59991;52.140;5.428;2023-02-14T00:37:51;34.63;;;25.20;;
72115;SDS011;59991;52.140;5.428;2023-02-14T00:38:23;38.13;;;23.95;;
72115;SDS011;59991;52.140;5.428;2023-02-14T00:38:54;38.05;;;26.90;;
72115;SDS011;59991;52.140;5.428;2023-02-14T00:39:26;38.42;;;25.67;;
72115;SDS011;59991;52.140;5.428;2023-02-14T00:39:58;37.80;;;25.48;;
72115;SDS011;59991;52.140;5.428;2023-02-14T00:40:29;36.65;;;26.35;;
72115;SDS011;59991;52.140;5.428;2023-02-14T00:41:01;39.75;;;25.85;;
72115;SDS011;59991;52.140;5.428;2023-02-14T00:41:32;38.90;;;27.77;;
72115;SDS011;59991;52.140;5.428;2023-02-14T00:42:04;36.83;;;25.80;;
72115;SDS011;59991;52.140;5.428;2023-02-14T00:42:36;34.83;;;24.43;;
72115;SDS011;59991;52.140;5.428;2023-02-14T00:43:07;35.72;;;24.95;;
72115;SDS011;59991;52.140;5.428;2023-02-14T00:43:38;41.60;;;25.20;;
72115;SDS011;59991;52.140;5.428;2023-02-14T00:44:11;38.83;;;27.45;;
72115;SDS011;59991;52.140;5.428;2023-02-14T00:44:43;39.00;;;27.52;;
72115;SDS011;59991;52.140;5.428;2023-02-14T00:45:14;36.70;;;24.73;;
72115;SDS011;59991;52.140;5.428;2023-02-14T00:45:49;34.78;;;24.33;;
72115;SDS011;59991;52.140;5.428;2023-02-14T00:46:21;36.20;;;24.33;;
72115;SDS011;59991;52.140;5.428;2023-02-14T00:46:53;36.97;;;25.88;;
72115;SDS011;59991;52.140;5.428;2023-02-14T00:47:25;37.15;;;24.77;;
72115;SDS011;59991;52.140;5.428;2023-02-14T00:47:56;36.20;;;25.80;;
72115;SDS011;59991;52.140;5.428;2023-02-14T00:48:29;39.33;;;25.98;;
72115;SDS011;59991;52.140;5.428;2023-02-14T00:49:06;34.67;;;23.50;;
72115;SDS011;59991;52.140;5.428;2023-02-14T00:49:38;36.28;;;25.30;;
72115;SDS011;59991;52.140;5.428;2023-02-14T00:50:10;34.95;;;24.77;;
72115;SDS011;59991;52.140;5.428;2023-02-14T00:50:41;35.65;;;24.85;;
72115;SDS011;59991;52.140;5.428;2023-02-14T00:51:13;35.30;;;25.60;;
72115;SDS011;59991;52.140;5.428;2023-02-14T00:51:45;37.28;;;26.38;;
72115;SDS011;59991;52.140;5.428;2023-02-14T00:52:17;37.45;;;25.42;;
72115;SDS011;59991;52.140;5.428;2023-02-14T00:52:48;34.65;;;24.70;;
72115;SDS011;59991;52.140;5.428;2023-02-14T00:53:19;36.23;;;25.17;;
72115;SDS011;59991;52.140;5.428;2023-02-14T00:53:51;35.55;;;24.90;;
72115;SDS011;59991;52.140;5.428;2023-02-14T00:54:23;38.17;;;24.40;;
72115;SDS011;59991;52.140;5.428;2023-02-14T00:54:55;38.05;;;25.58;;
72115;SDS011;59991;52.140;5.428;2023-02-14T00:55:26;36.60;;;26.33;;
72115;SDS011;59991;52.140;5.428;2023-02-14T00:55:58;35.63;;;25.83;;
72115;SDS011;59991;52.140;5.428;2023-02-14T00:56:30;39.25;;;26.02;;
72115;SDS011;59991;52.140;5.428;2023-02-14T00:57:02;39.60;;;26.77;;
72115;SDS011;59991;52.140;5.428;2023-02-14T00:57:33;38.92;;;26.20;;
72115;SDS011;59991;52.140;5.428;2023-02-14T00:58:05;40.95;;;27.13;;
72115;SDS011;59991;52.140;5.428;2023-02-14T00:58:37;37.13;;;25.77;;
72115;SDS011;59991;52.140;5.428;2023-02-14T00:59:08;39.20;;;26.65;;
72115;SDS011;59991;52.140;5.428;2023-02-14T00:59:40;37.13;;;26.73;;
72115;SDS011;59991;52.140;5.428;2023-02-14T01:00:11;40.42;;;29.10;;
72115;SDS011;59991;52.140;5.428;2023-02-14T01:00:43;42.83;;;28.27;;
72115;SDS011;59991;52.140;5.428;2023-02-14T01:01:15;40.92;;;27.13;;
72115;SDS011;59991;52.140;5.428;2023-02-14T01:01:48;40.30;;;27.83;;
72115;SDS011;59991;52.140;5.428;2023-02-14T01:02:19;44.70;;;29.17;;
72115;SDS011;59991;52.140;5.428;2023-02-14T01:02:51;43.40;;;31.33;;
72115;SDS011;59991;52.140;5.428;2023-02-14T01:03:23;44.92;;;30.15;;
72115;SDS011;59991;52.140;5.428;2023-02-14T01:03:55;44.30;;;29.40;;
72115;SDS011;59991;52.140;5.428;2023-02-14T01:04:29;45.38;;;29.10;;
72115;SDS011;59991;52.140;5.428;2023-02-14T01:05:00;43.78;;;28.90;;
72115;SDS011;59991;52.140;5.428;2023-02-14T01:05:32;44.85;;;29.05;;
72115;SDS011;59991;52.140;5.428;2023-02-14T01:06:04;47.78;;;31.30;;
72115;SDS011;59991;52.140;5.428;2023-02-14T01:06:36;48.55;;;29.25;;
72115;SDS011;59991;52.140;5.428;2023-02-14T01:07:08;47.20;;;29.70;;
72115;SDS011;59991;52.140;5.428;2023-02-14T01:07:39;44.90;;;28.63;;
72115;SDS011;59991;52.140;5.428;2023-02-14T01:08:11;46.35;;;28.98;;
72115;SDS011;59991;52.140;5.428;2023-02-14T01:08:42;44.42;;;29.52;;
72115;SDS011;59991;52.140;5.428;2023-02-14T01:09:14;48.10;;;31.17;;
72115;SDS011;59991;52.140;5.428;2023-02-14T01:09:45;44.95;;;29.75;;
72115;SDS011;59991;52.140;5.428;2023-02-14T01:10:17;47.88;;;31.70;;
72115;SDS011;59991;52.140;5.428;2023-02-14T01:10:48;42.72;;;30.02;;
72115;SDS011;59991;52.140;5.428;2023-02-14T01:11:21;50.50;;;31.80;;
72115;SDS011;59991;52.140;5.428;2023-02-14T01:11:53;45.00;;;29.67;;
72115;SDS011;59991;52.140;5.428;2023-02-14T01:12:25;48.30;;;29.85;;
72115;SDS011;59991;52.140;5.428;2023-02-14T01:12:56;42.85;;;30.63;;
72115;SDS011;59991;52.140;5.428;2023-02-14T01:13:28;48.83;;;31.58;;
72115;SDS011;59991;52.140;5.428;2023-02-14T01:13:59;44.72;;;29.15;;
72115;SDS011;59991;52.140;5.428;2023-02-14T01:14:34;43.40;;;27.73;;
72115;SDS011;59991;52.140;5.428;2023-02-14T01:15:06;43.08;;;30.25;;
72115;SDS011;59991;52.140;5.428;2023-02-14T01:15:38;46.03;;;30.40;;
72115;SDS011;59991;52.140;5.428;2023-02-14T01:16:12;42.63;;;28.95;;
72115;SDS011;59991;52.140;5.428;2023-02-14T01:16:48;45.30;;;30.55;;
72115;SDS011;59991;52.140;5.428;2023-02-14T01:17:20;43.35;;;29.63;;
72115;SDS011;59991;52.140;5.428;2023-02-14T01:17:51;41.15;;;27.73;;
72115;SDS011;59991;52.140;5.428;2023-02-14T01:18:23;41.00;;;28.58;;
72115;SDS011;59991;52.140;5.428;2023-02-14T01:18:56;41.28;;;27.83;;
72115;SDS011;59991;52.140;5.428;2023-02-14T01:19:31;43.92;;;26.95;;
72115;SDS011;59991;52.140;5.428;2023-02-14T01:20:05;38.73;;;27.17;;
72115;SDS011;59991;52.140;5.428;2023-02-14T01:20:38;43.53;;;26.98;;
72115;SDS011;59991;52.140;5.428;2023-02-14T01:21:17;43.97;;;29.20;;
72115;SDS011;59991;52.140;5.428;2023-02-14T01:21:59;37.85;;;26.60;;
72115;SDS011;59991;52.140;5.428;2023-02-14T01:22:35;37.92;;;25.15;;
72115;SDS011;59991;52.140;5.428;2023-02-14T01:23:07;42.97;;;27.00;;
72115;SDS011;59991;52.140;5.428;2023-02-14T01:23:39;42.13;;;26.60;;
72115;SDS011;59991;52.140;5.428;2023-02-14T01:24:11;41.25;;;27.02;;
72115;SDS011;59991;52.140;5.428;2023-02-14T01:24:43;40.38;;;27.50;;
72115;SDS011;59991;52.140;5.428;2023-02-14T01:25:14;39.65;;;26.65;;
72115;SDS011;59991;52.140;5.428;2023-02-14T01:25:46;40.37;;;25.93;;
72115;SDS011;59991;52.140;5.428;2023-02-14T01:26:18;38.97;;;26.17;;
72115;SDS011;59991;52.140;5.428;2023-02-14T01:26:51;37.33;;;27.10;;
72115;SDS011;59991;52.140;5.428;2023-02-14T01:27:22;39.85;;;27.65;;
72115;SDS011;59991;52.140;5.428;2023-02-14T01:27:53;42.83;;;28.33;;
72115;SDS011;59991;52.140;5.428;2023-02-14T01:28:25;42.03;;;28.92;;
72115;SDS011;59991;52.140;5.428;2023-02-14T01:28:56;38.22;;;26.15;;
72115;SDS011;59991;52.140;5.428;2023-02-14T01:29:28;38.17;;;27.55;;
72115;SDS011;59991;52.140;5.428;2023-02-14T01:30:00;41.28;;;27.77;;
72115;SDS011;59991;52.140;5.428;2023-02-14T01:30:31;37.30;;;25.67;;
72115;SDS011;59991;52.140;5.428;2023-02-14T01:31:06;38.37;;;28.17;;
72115;SDS011;59991;52.140;5.428;2023-02-14T01:31:45;35.53;;;25.40;;
72115;SDS011;59991;52.140;5.428;2023-02-14T01:32:19;39.60;;;25.73;;
72115;SDS011;59991;52.140;5.428;2023-02-14T01:32:50;33.78;;;23.83;;
72115;SDS011;59991;52.140;5.428;2023-02-14T01:33:22;37.10;;;26.60;;
72115;SDS011;59991;52.140;5.428;2023-02-14T01:33:53;34.25;;;23.17;;
72115;SDS011;59991;52.140;5.428;2023-02-14T01:34:26;35.83;;;24.38;;
72115;SDS011;59991;52.140;5.428;2023-02-14T01:34:58;37.92;;;25.10;;
72115;SDS011;59991;52.140;5.428;2023-02-14T01:35:29;36.15;;;23.40;;
72115;SDS011;59991;52.140;5.428;2023-02-14T01:36:00;35.38;;;24.45;;
72115;SDS011;59991;52.140;5.428;2023-02-14T01:36:34;32.73;;;22.50;;
72115;SDS011;59991;52.140;5.428;2023-02-14T01:37:07;33.60;;;23.98;;
72115;SDS011;59991;52.140;5.428;2023-02-14T01:37:39;34.50;;;24.23;;
72115;SDS011;59991;52.140;5.428;2023-02-14T01:38:10;33.55;;;24.77;;
72115;SDS011;59991;52.140;5.428;2023-02-14T01:38:42;34.63;;;23.90;;
72115;SDS011;59991;52.140;5.428;2023-02-14T01:39:13;33.67;;;23.80;;
72115;SDS011;59991;52.140;5.428;2023-02-14T01:39:45;33.90;;;24.02;;
72115;SDS011;59991;52.140;5.428;2023-02-14T01:40:17;34.22;;;24.08;;
72115;SDS011;59991;52.140;5.428;2023-02-14T01:40:48;35.22;;;25.33;;
72115;SDS011;59991;52.140;5.428;2023-02-14T01:41:20;32.05;;;23.55;;
72115;SDS011;59991;52.140;5.428;2023-02-14T01:41:52;34.03;;;23.83;;
72115;SDS011;59991;52.140;5.428;2023-02-14T01:42:26;36.00;;;24.60;;
72115;SDS011;59991;52.140;5.428;2023-02-14T01:42:57;34.58;;;22.90;;
72115;SDS011;59991;52.140;5.428;2023-02-14T01:43:28;34.88;;;24.20;;
72115;SDS011;59991;52.140;5.428;2023-02-14T01:44:01;32.95;;;24.30;;
72115;SDS011;59991;52.140;5.428;2023-02-14T01:45:20;32.60;;;23.38;;
72115;SDS011;59991;52.140;5.428;2023-02-14T01:45:56;28.58;;;21.38;;
72115;SDS011;59991;52.140;5.428;2023-02-14T01:46:28;31.55;;;22.55;;
72115;SDS011;59991;52.140;5.428;2023-02-14T01:47:06;29.63;;;21.33;;
72115;SDS011;59991;52.140;5.428;2023-02-14T01:47:40;29.33;;;21.77;;
72115;SDS011;59991;52.140;5.428;2023-02-14T01:48:13;29.45;;;21.27;;
72115;SDS011;59991;52.140;5.428;2023-02-14T01:48:46;28.65;;;21.02;;
72115;SDS011;59991;52.140;5.428;2023-02-14T01:49:23;29.30;;;23.00;;
72115;SDS011;59991;52.140;5.428;2023-02-14T01:50:00;29.65;;;22.52;;
72115;SDS011;59991;52.140;5.428;2023-02-14T01:50:38;28.35;;;20.88;;
72115;SDS011;59991;52.140;5.428;2023-02-14T01:51:13;27.85;;;21.88;;
72115;SDS011;59991;52.140;5.428;2023-02-14T01:51:49;29.98;;;22.58;;
72115;SDS011;59991;52.140;5.428;2023-02-14T01:52:25;29.15;;;22.15;;
72115;SDS011;59991;52.140;5.428;2023-02-14T01:53:03;29.98;;;21.67;;
72115;SDS011;59991;52.140;5.428;2023-02-14T01:53:39;29.97;;;21.63;;
72115;SDS011;59991;52.140;5.428;2023-02-14T01:54:11;32.30;;;23.45;;
72115;SDS011;59991;52.140;5.428;2023-02-14T01:54:47;29.52;;;21.65;;
72115;SDS011;59991;52.140;5.428;2023-02-14T01:55:26;30.35;;;21.80;;
72115;SDS011;59991;52.140;5.428;2023-02-14T01:56:04;28.60;;;22.33;;
72115;SDS011;59991;52.140;5.428;2023-02-14T01:56:41;30.52;;;21.77;;
72115;SDS011;59991;52.140;5.428;2023-02-14T01:57:16;27.52;;;20.52;;
72115;SDS011;59991;52.140;5.428;2023-02-14T01:57:52;29.50;;;21.20;;
72115;SDS011;59991;52.140;5.428;2023-02-14T01:58:28;32.00;;;23.33;;
72115;SDS011;59991;52.140;5.428;2023-02-14T01:59:05;29.27;;;22.25;;
72115;SDS011;59991;52.140;5.428;2023-02-14T01:59:42;27.83;;;20.93;;
72115;SDS011;59991;52.140;5.428;2023-02-14T02:00:19;29.55;;;21.73;;
72115;SDS011;59991;52.140;5.428;2023-02-14T02:01:11;28.10;;;20.65;;
72115;SDS011;59991;52.140;5.428;2023-02-14T02:01:44;29.45;;;21.38;;
72115;SDS011;59991;52.140;5.428;2023-02-14T02:02:18;27.17;;;21.17;;
72115;SDS011;59991;52.140;5.428;2023-02-14T02:02:54;26.42;;;19.95;;
72115;SDS011;59991;52.140;5.428;2023-02-14T02:03:29;29.73;;;22.88;;
72115;SDS011;59991;52.140;5.428;2023-02-14T02:04:06;28.73;;;21.75;;
72115;SDS011;59991;52.140;5.428;2023-02-14T02:04:43;28.75;;;22.35;;
72115;SDS011;59991;52.140;5.428;2023-02-14T02:05:16;27.52;;;21.08;;
72115;SDS011;59991;52.140;5.428;2023-02-14T02:05:54;28.27;;;20.77;;
72115;SDS011;59991;52.140;5.428;2023-02-14T02:06:40;27.77;;;20.15;;
72115;SDS011;59991;52.140;5.428;2023-02-14T02:07:16;26.75;;;20.45;;
72115;SDS011;59991;52.140;5.428;2023-02-14T02:07:51;28.52;;;20.42;;
72115;SDS011;59991;52.140;5.428;2023-02-14T02:08:27;27.15;;;19.67;;
72115;SDS011;59991;52.140;5.428;2023-02-14T02:09:58;31.65;;;22.10;;
72115;SDS011;59991;52.140;5.428;2023-02-14T02:10:32;29.67;;;21.65;;
72115;SDS011;59991;52.140;5.428;2023-02-14T02:11:04;35.20;;;22.77;;
72115;SDS011;59991;52.140;5.428;2023-02-14T02:11:36;29.08;;;21.35;;
72115;SDS011;59991;52.140;5.428;2023-02-14T02:12:08;30.90;;;20.40;;
72115;SDS011;59991;52.140;5.428;2023-02-14T02:12:39;32.63;;;22.33;;
72115;SDS011;59991;52.140;5.428;2023-02-14T02:13:15;29.58;;;21.17;;
72115;SDS011;59991;52.140;5.428;2023-02-14T02:13:49;28.98;;;21.70;;
72115;SDS011;59991;52.140;5.428;2023-02-14T02:14:21;29.98;;;23.08;;
72115;SDS011;59991;52.140;5.428;2023-02-14T02:14:53;32.03;;;22.58;;
72115;SDS011;59991;52.140;5.428;2023-02-14T02:15:25;29.75;;;21.67;;
72115;SDS011;59991;52.140;5.428;2023-02-14T02:17:41;30.75;;;22.50;;
72115;SDS011;59991;52.140;5.428;2023-02-14T02:19:02;28.40;;;20.92;;
72115;SDS011;59991;52.140;5.428;2023-02-14T02:20:52;29.90;;;22.08;;
72115;SDS011;59991;52.140;5.428;2023-02-14T02:21:37;25.00;;;19.33;;
72115;SDS011;59991;52.140;5.428;2023-02-14T02:24:18;30.40;;;21.17;;
72115;SDS011;59991;52.140;5.428;2023-02-14T02:27:55;28.38;;;19.85;;
72115;SDS011;59991;52.140;5.428;2023-02-14T02:28:54;27.45;;;19.50;;
72115;SDS011;59991;52.140;5.428;2023-02-14T02:31:29;25.85;;;19.58;;
72115;SDS011;59991;52.140;5.428;2023-02-14T02:33:37;25.35;;;18.95;;
72115;SDS011;59991;52.140;5.428;2023-02-14T02:36:14;26.13;;;19.00;;
72115;SDS011;59991;52.140;5.428;2023-02-14T02:38:45;26.02;;;18.45;;
72115;SDS011;59991;52.140;5.428;2023-02-14T02:40:22;25.90;;;18.02;;
72115;SDS011;59991;52.140;5.428;2023-02-14T02:44:20;21.13;;;16.33;;
72115;SDS011;59991;52.140;5.428;2023-02-14T02:45:53;21.63;;;16.45;;
72115;SDS011;59991;52.140;5.428;2023-02-14T02:48:09;21.48;;;15.90;;
72115;SDS011;59991;52.140;5.428;2023-02-14T02:50:26;22.77;;;15.88;;
72115;SDS011;59991;52.140;5.428;2023-02-14T02:51:54;23.73;;;17.58;;
72115;SDS011;59991;52.140;5.428;2023-02-14T02:54:52;21.10;;;17.23;;
72115;SDS011;59991;52.140;5.428;2023-02-14T02:56:34;21.53;;;16.70;;
72115;SDS011;59991;52.140;5.428;2023-02-14T02:57:22;23.60;;;17.20;;
72115;SDS011;59991;52.140;5.428;2023-02-14T02:57:59;24.25;;;18.02;;
72115;SDS011;59991;52.140;5.428;2023-02-14T02:58:36;25.35;;;19.33;;
72115;SDS011;59991;52.140;5.428;2023-02-14T02:59:23;25.48;;;19.58;;
72115;SDS011;59991;52.140;5.428;2023-02-14T02:59:59;23.45;;;19.25;;
72115;SDS011;59991;52.140;5.428;2023-02-14T03:00:34;22.38;;;17.67;;
72115;SDS011;59991;52.140;5.428;2023-02-14T03:01:07;25.30;;;18.63;;
72115;SDS011;59991;52.140;5.428;2023-02-14T03:01:41;26.33;;;20.85;;
72115;SDS011;59991;52.140;5.428;2023-02-14T03:02:50;22.27;;;17.30;;
72115;SDS011;59991;52.140;5.428;2023-02-14T03:03:44;23.92;;;18.63;;
72115;SDS011;59991;52.140;5.428;2023-02-14T03:04:37;26.25;;;19.23;;
72115;SDS011;59991;52.140;5.428;2023-02-14T03:05:26;24.30;;;18.88;;
72115;SDS011;59991;52.140;5.428;2023-02-14T03:05:59;30.27;;;20.65;;
72115;SDS011;59991;52.140;5.428;2023-02-14T03:06:31;25.08;;;19.77;;
72115;SDS011;59991;52.140;5.428;2023-02-14T03:07:03;28.95;;;20.00;;
72115;SDS011;59991;52.140;5.428;2023-02-14T03:07:55;25.73;;;18.75;;
72115;SDS011;59991;52.140;5.428;2023-02-14T03:08:26;25.25;;;20.15;;
72115;SDS011;59991;52.140;5.428;2023-02-14T03:09:08;26.75;;;20.42;;
72115;SDS011;59991;52.140;5.428;2023-02-14T03:10:07;23.13;;;17.10;;
72115;SDS011;59991;52.140;5.428;2023-02-14T03:10:39;23.63;;;19.13;;
72115;SDS011;59991;52.140;5.428;2023-02-14T03:11:12;26.73;;;19.55;;
72115;SDS011;59991;52.140;5.428;2023-02-14T03:11:47;24.77;;;19.60;;
72115;SDS011;59991;52.140;5.428;2023-02-14T03:12:39;27.15;;;20.27;;
72115;SDS011;59991;52.140;5.428;2023-02-14T03:13:28;27.08;;;19.95;;
72115;SDS011;59991;52.140;5.428;2023-02-14T03:14:16;25.88;;;18.17;;
72115;SDS011;59991;52.140;5.428;2023-02-14T03:14:57;24.65;;;18.73;;
72115;SDS011;59991;52.140;5.428;2023-02-14T03:16:30;29.52;;;18.13;;
72115;SDS011;59991;52.140;5.428;2023-02-14T03:17:22;27.63;;;19.57;;
72115;SDS011;59991;52.140;5.428;2023-02-14T03:20:07;23.85;;;18.17;;
72115;SDS011;59991;52.140;5.428;2023-02-14T03:20:54;24.70;;;17.48;;
72115;SDS011;59991;52.140;5.428;2023-02-14T03:21:46;23.80;;;17.50;;
72115;SDS011;59991;52.140;5.428;2023-02-14T03:22:26;26.65;;;17.83;;
72115;SDS011;59991;52.140;5.428;2023-02-14T03:23:53;25.08;;;19.40;;
72115;SDS011;59991;52.140;5.428;2023-02-14T03:24:38;25.30;;;19.05;;
72115;SDS011;59991;52.140;5.428;2023-02-14T03:26:16;27.27;;;18.77;;
72115;SDS011;59991;52.140;5.428;2023-02-14T03:27:34;25.02;;;20.17;;
72115;SDS011;59991;52.140;5.428;2023-02-14T03:28:16;24.85;;;18.33;;
72115;SDS011;59991;52.140;5.428;2023-02-14T03:28:57;23.88;;;19.00;;
72115;SDS011;59991;52.140;5.428;2023-02-14T03:29:44;29.02;;;20.67;;
72115;SDS011;59991;52.140;5.428;2023-02-14T03:30:33;24.60;;;18.83;;
72115;SDS011;59991;52.140;5.428;2023-02-14T03:32:16;25.50;;;18.58;;
72115;SDS011;59991;52.140;5.428;2023-02-14T03:33:00;24.03;;;18.57;;
72115;SDS011;59991;52.140;5.428;2023-02-14T03:34:54;29.30;;;18.73;;
72115;SDS011;59991;52.140;5.428;2023-02-14T03:35:38;21.70;;;16.77;;
72115;SDS011;59991;52.140;5.428;2023-02-14T03:36:13;25.35;;;19.00;;
72115;SDS011;59991;52.140;5.428;2023-02-14T03:36:49;27.90;;;20.00;;
72115;SDS011;59991;52.140;5.428;2023-02-14T03:37:33;23.30;;;17.45;;
72115;SDS011;59991;52.140;5.428;2023-02-14T03:38:20;25.88;;;18.02;;
72115;SDS011;59991;52.140;5.428;2023-02-14T03:39:01;23.35;;;17.75;;
72115;SDS011;59991;52.140;5.428;2023-02-14T03:39:42;24.52;;;17.77;;
72115;SDS011;59991;52.140;5.428;2023-02-14T03:40:54;23.33;;;17.38;;
72115;SDS011;59991;52.140;5.428;2023-02-14T03:41:31;24.35;;;17.55;;
72115;SDS011;59991;52.140;5.428;2023-02-14T03:42:15;23.60;;;17.67;;
72115;SDS011;59991;52.140;5.428;2023-02-14T03:42:52;23.00;;;17.33;;
72115;SDS011;59991;52.140;5.428;2023-02-14T03:43:29;23.23;;;16.67;;
72115;SDS011;59991;52.140;5.428;2023-02-14T03:44:05;22.02;;;15.38;;
72115;SDS011;59991;52.140;5.428;2023-02-14T03:44:41;22.38;;;17.63;;
72115;SDS011;59991;52.140;5.428;2023-02-14T03:45:19;21.65;;;18.40;;
72115;SDS011;59991;52.140;5.428;2023-02-14T03:46:05;20.83;;;17.58;;
72115;SDS011;59991;52.140;5.428;2023-02-14T03:46:39;22.37;;;17.10;;
72115;SDS011;59991;52.140;5.428;2023-02-14T03:47:16;22.23;;;16.83;;
72115;SDS011;59991;52.140;5.428;2023-02-14T03:47:50;24.13;;;16.45;;
72115;SDS011;59991;52.140;5.428;2023-02-14T03:48:25;23.30;;;18.08;;
72115;SDS011;59991;52.140;5.428;2023-02-14T03:49:00;26.35;;;17.45;;
72115;SDS011;59991;52.140;5.428;2023-02-14T03:49:37;23.80;;;16.63;;
72115;SDS011;59991;52.140;5.428;2023-02-14T03:50:19;30.50;;;17.00;;
72115;SDS011;59991;52.140;5.428;2023-02-14T03:50:50;27.33;;;17.25;;
72115;SDS011;59991;52.140;5.428;2023-02-14T03:51:24;22.80;;;17.80;;
72115;SDS011;59991;52.140;5.428;2023-02-14T03:51:57;23.58;;;16.95;;
72115;SDS011;59991;52.140;5.428;2023-02-14T03:52:32;20.53;;;16.80;;
72115;SDS011;59991;52.140;5.428;2023-02-14T03:53:06;22.30;;;16.52;;
72115;SDS011;59991;52.140;5.428;2023-02-14T03:53:42;22.15;;;17.27;;
72115;SDS011;59991;52.140;5.428;2023-02-14T03:54:17;22.75;;;17.90;;
72115;SDS011;59991;52.140;5.428;2023-02-14T03:54:51;22.17;;;17.20;;
72115;SDS011;59991;52.140;5.428;2023-02-14T03:55:29;21.15;;;16.30;;
72115;SDS011;59991;52.140;5.428;2023-02-14T03:56:55;20.88;;;16.38;;
72115;SDS011;59991;52.140;5.428;2023-02-14T03:57:34;21.80;;;17.98;;
72115;SDS011;59991;52.140;5.428;2023-02-14T03:58:26;20.17;;;16.63;;
72115;SDS011;59991;52.140;5.428;2023-02-14T03:59:05;20.47;;;16.47;;
72115;SDS011;59991;52.140;5.428;2023-02-14T03:59:42;20.42;;;16.27;;
72115;SDS011;59991;52.140;5.428;2023-02-14T04:00:14;20.55;;;15.55;;
72115;SDS011;59991;52.140;5.428;2023-02-14T04:00:49;22.88;;;16.98;;
72115;SDS011;59991;52.140;5.428;2023-02-14T04:01:29;20.42;;;17.30;;
72115;SDS011;59991;52.140;5.428;2023-02-14T04:02:16;19.90;;;15.75;;
72115;SDS011;59991;52.140;5.428;2023-02-14T04:02:55;18.65;;;15.95;;
72115;SDS011;59991;52.140;5.428;2023-02-14T04:03:33;18.80;;;15.45;;
72115;SDS011;59991;52.140;5.428;2023-02-14T04:04:09;23.60;;;17.35;;
72115;SDS011;59991;52.140;5.428;2023-02-14T04:04:44;21.58;;;15.85;;
72115;SDS011;59991;52.140;5.428;2023-02-14T04:05:22;18.90;;;15.60;;
72115;SDS011;59991;52.140;5.428;2023-02-14T04:05:56;21.40;;;16.75;;